sensor_id;sensor_type;location;lat;lon;timestamp;pressure;altitude;pressure_sealevel;temperature;humidity
16821;BME280;8527;49.740;6.604;2023-02-13T00:02:13;101743.00;;;1.57;100.00
16821;BME280;8527;49.740;6.604;2023-02-13T00:07:12;101744.31;;;1.45;100.00
16821;BME280;8527;49.740;6.604;2023-02-13T00:12:13;101745.19;;;1.45;100.00
16821;BME280;8527;49.740;6.604;2023-02-13T00:17:13;101734.84;;;1.42;100.00
16821;BME280;8527;49.740;6.604;2023-02-13T00:22:12;101744.78;;;1.32;100.00
16821;BME280;8527;49.740;6.604;2023-02-13T00:27:16;101744.13;;;1.27;100.00
16821;BME280;8527;49.740;6.604;2023-02-13T00:32:17;101737.81;;;1.33;100.00
16821;BME280;8527;49.740;6.604;2023-02-13T00:37:18;101738.72;;;1.32;100.00
16821;BME280;8527;49.740;6.604;2023-02-13T00:42:23;101737.25;;;1.24;100.00
16821;BME280;8527;49.740;6.604;2023-02-13T00:47:26;101733.78;;;1.24;100.00
16821;BME280;8527;49.740;6.604;2023-02-13T00:52:25;101729.97;;;1.09;100.00
16821;BME280;8527;49.740;6.604;2023-02-13T00:57:26;101730.94;;;1.06;100.00
16821;BME280;8527;49.740;6.604;2023-02-13T01:02:26;101727.00;;;0.96;100.00
16821;BME280;8527;49.740;6.604;2023-02-13T01:07:24;101734.47;;;1.05;100.00
16821;BME280;8527;49.740;6.604;2023-02-13T01:12:25;101730.09;;;1.06;100.00
16821;BME280;8527;49.740;6.604;2023-02-13T01:17:24;101733.63;;;1.05;100.00
16821;BME280;8527;49.740;6.604;2023-02-13T01:22:23;101730.41;;;0.98;100.00
16821;BME280;8527;49.740;6.604;2023-02-13T01:27:30;101732.38;;;0.91;100.00
16821;BME280;8527;49.740;6.604;2023-02-13T01:32:32;101734.13;;;0.91;100.00
16821;BME280;8527;49.740;6.604;2023-02-13T01:37:33;101735.91;;;0.90;100.00
16821;BME280;8527;49.740;6.604;2023-02-13T01:42:35;101737.69;;;0.88;100.00
16821;BME280;8527;49.740;6.604;2023-02-13T01:47:39;101743.16;;;0.82;100.00
16821;BME280;8527;49.740;6.604;2023-02-13T01:52:46;101737.25;;;0.77;100.00
16821;BME280;8527;49.740;6.604;2023-02-13T01:57:56;101738.81;;;0.82;100.00
16821;BME280;8527;49.740;6.604;2023-02-13T02:03:08;101747.75;;;0.75;100.00
16821;BME280;8527;49.740;6.604;2023-02-13T02:08:14;101739.06;;;0.75;100.00
16821;BME280;8527;49.740;6.604;2023-02-13T02:13:20;101730.06;;;0.83;100.00
16821;BME280;8527;49.740;6.604;2023-02-13T02:18:20;101729.16;;;0.84;100.00
16821;BME280;8527;49.740;6.604;2023-02-13T02:23:45;101728.28;;;0.84;100.00
16821;BME280;8527;49.740;6.604;2023-02-13T02:29:03;101725.16;;;0.74;100.00
16821;BME280;8527;49.740;6.604;2023-02-13T02:34:19;101715.00;;;0.66;100.00
16821;BME280;8527;49.740;6.604;2023-02-13T02:39:27;101719.34;;;0.66;100.00
16821;BME280;8527;49.740;6.604;2023-02-13T02:44:40;101713.44;;;0.61;100.00
16821;BME280;8527;49.740;6.604;2023-02-13T02:49:48;101713.38;;;0.62;100.00
16821;BME280;8527;49.740;6.604;2023-02-13T02:55:04;101710.88;;;0.59;100.00
16821;BME280;8527;49.740;6.604;2023-02-13T03:00:11;101721.44;;;0.56;100.00
16821;BME280;8527;49.740;6.604;2023-02-13T03:05:28;101726.44;;;0.62;100.00
16821;BME280;8527;49.740;6.604;2023-02-13T03:10:50;101731.94;;;0.54;100.00
16821;BME280;8527;49.740;6.604;2023-02-13T03:16:02;101730.88;;;0.60;100.00
16821;BME280;8527;49.740;6.604;2023-02-13T03:21:35;101736.00;;;0.63;100.00
16821;BME280;8527;49.740;6.604;2023-02-13T03:26:58;101731.56;;;0.65;100.00
16821;BME280;8527;49.740;6.604;2023-02-13T03:32:12;101729.59;;;0.72;100.00
16821;BME280;8527;49.740;6.604;2023-02-13T03:37:26;101726.81;;;0.77;100.00
16821;BME280;8527;49.740;6.604;2023-02-13T03:42:46;101732.91;;;0.76;100.00
16821;BME280;8527;49.740;6.604;2023-02-13T03:47:55;101733.63;;;0.81;100.00
16821;BME280;8527;49.740;6.604;2023-02-13T03:53:02;101736.19;;;0.82;100.00
16821;BME280;8527;49.740;6.604;2023-02-13T03:58:08;101732.25;;;0.94;100.00
16821;BME280;8527;49.740;6.604;2023-02-13T04:03:24;101738.34;;;0.95;100.00
16821;BME280;8527;49.740;6.604;2023-02-13T04:08:27;101737.19;;;1.02;100.00
16821;BME280;8527;49.740;6.604;2023-02-13T04:13:35;101731.22;;;0.98;100.00
16821;BME280;8527;49.740;6.604;2023-02-13T04:18:37;101733.06;;;0.96;100.00
16821;BME280;8527;49.740;6.604;2023-02-13T04:23:42;101728.75;;;0.95;100.00
16821;BME280;8527;49.740;6.604;2023-02-13T04:28:41;101734.19;;;0.89;100.00
16821;BME280;8527;49.740;6.604;2023-02-13T04:33:46;101728.50;;;0.78;100.00
16821;BME280;8527;49.740;6.604;2023-02-13T04:38:47;101733.56;;;0.82;100.00
16821;BME280;8527;49.740;6.604;2023-02-13T04:43:45;101736.97;;;0.84;100.00
16821;BME280;8527;49.740;6.604;2023-02-13T04:48:46;101738.72;;;0.84;100.00
16821;BME280;8527;49.740;6.604;2023-02-13T04:53:50;101739.44;;;0.89;100.00
16821;BME280;8527;49.740;6.604;2023-02-13T04:58:48;101735.00;;;0.91;100.00
16821;BME280;8527;49.740;6.604;2023-02-13T05:03:46;101735.91;;;0.90;100.00
16821;BME280;8527;49.740;6.604;2023-02-13T05:08:48;101739.75;;;0.80;100.00
16821;BME280;8527;49.740;6.604;2023-02-13T05:13:46;101741.41;;;0.82;100.00
16821;BME280;8527;49.740;6.604;2023-02-13T05:18:45;101734.53;;;0.80;100.00
16821;BME280;8527;49.740;6.604;2023-02-13T05:23:43;101737.06;;;0.81;100.00
16821;BME280;8527;49.740;6.604;2023-02-13T05:28:44;101742.88;;;0.90;100.00
16821;BME280;8527;49.740;6.604;2023-02-13T05:33:55;101749.81;;;0.91;100.00
16821;BME280;8527;49.740;6.604;2023-02-13T05:38:56;101741.94;;;0.92;100.00
16821;BME280;8527;49.740;6.604;2023-02-13T05:43:57;101752.03;;;1.02;100.00
16821;BME280;8527;49.740;6.604;2023-02-13T05:48:57;101761.47;;;1.06;100.00
16821;BME280;8527;49.740;6.604;2023-02-13T05:53:56;101759.78;;;1.05;100.00
16821;BME280;8527;49.740;6.604;2023-02-13T05:58:57;101761.47;;;1.06;100.00
16821;BME280;8527;49.740;6.604;2023-02-13T06:03:58;101761.63;;;1.01;100.00
16821;BME280;8527;49.740;6.604;2023-02-13T06:08:58;101758.00;;;1.05;100.00
16821;BME280;8527;49.740;6.604;2023-02-13T06:13:59;101753.56;;;1.07;100.00
16821;BME280;8527;49.740;6.604;2023-02-13T06:19:03;101746.25;;;0.93;100.00
16821;BME280;8527;49.740;6.604;2023-02-13T06:24:01;101756.34;;;0.79;100.00
16821;BME280;8527;49.740;6.604;2023-02-13T06:29:02;101755.78;;;0.69;100.00
16821;BME280;8527;49.740;6.604;2023-02-13T06:34:00;101752.63;;;0.61;100.00
16821;BME280;8527;49.740;6.604;2023-02-13T06:38:59;101753.47;;;0.61;100.00
16821;BME280;8527;49.740;6.604;2023-02-13T06:43:57;101756.03;;;0.63;100.00
16821;BME280;8527;49.740;6.604;2023-02-13T06:48:58;101762.91;;;0.65;100.00
16821;BME280;8527;49.740;6.604;2023-02-13T06:53:57;101763.75;;;0.66;100.00
16821;BME280;8527;49.740;6.604;2023-02-13T06:58:55;101763.19;;;0.58;100.00
16821;BME280;8527;49.740;6.604;2023-02-13T07:03:54;101767.38;;;0.62;100.00
16821;BME280;8527;49.740;6.604;2023-02-13T07:09:00;101766.63;;;0.58;100.00
16821;BME280;8527;49.740;6.604;2023-02-13T07:13:59;101774.50;;;0.56;100.00
16821;BME280;8527;49.740;6.604;2023-02-13T07:18:57;101778.44;;;0.43;100.00
16821;BME280;8527;49.740;6.604;2023-02-13T07:23:56;101782.38;;;0.30;100.00
16821;BME280;8527;49.740;6.604;2023-02-13T07:29:00;101775.69;;;0.48;100.00
16821;BME280;8527;49.740;6.604;2023-02-13T07:34:00;101783.81;;;0.65;100.00
16821;BME280;8527;49.740;6.604;2023-02-13T07:38:59;101776.06;;;0.88;100.00
16821;BME280;8527;49.740;6.604;2023-02-13T07:44:00;101774.66;;;0.77;100.00
16821;BME280;8527;49.740;6.604;2023-02-13T07:48:59;101776.06;;;0.88;100.00
16821;BME280;8527;49.740;6.604;2023-02-13T07:54:01;101776.81;;;1.15;100.00
16821;BME280;8527;49.740;6.604;2023-02-13T07:59:03;101770.50;;;1.21;100.00
16821;BME280;8527;49.740;6.604;2023-02-13T08:04:04;101778.91;;;1.29;100.00
16821;BME280;8527;49.740;6.604;2023-02-13T08:09:20;101768.31;;;1.32;100.00
16821;BME280;8527;49.740;6.604;2023-02-13T08:14:34;101769.31;;;1.30;100.00
16821;BME280;8527;49.740;6.604;2023-02-13T08:19:32;101780.84;;;1.24;100.00
16821;BME280;8527;49.740;6.604;2023-02-13T08:24:33;101780.06;;;1.22;100.00
16821;BME280;8527;49.740;6.604;2023-02-13T08:29:34;101771.28;;;0.99;100.00
16821;BME280;8527;49.740;6.604;2023-02-13T08:34:35;101773.22;;;0.94;100.00
16821;BME280;8527;49.740;6.604;2023-02-13T08:39:40;101777.44;;;0.98;100.00
16821;BME280;8527;49.740;6.604;2023-02-13T08:44:41;101773.00;;;1.24;100.00
16821;BME280;8527;49.740;6.604;2023-02-13T08:49:39;101773.00;;;1.48;100.00
16821;BME280;8527;49.740;6.604;2023-02-13T08:54:38;101776.09;;;1.58;100.00
16821;BME280;8527;49.740;6.604;2023-02-13T08:59:42;101770.94;;;1.78;100.00
16821;BME280;8527;49.740;6.604;2023-02-13T09:04:40;101769.75;;;1.86;100.00
16821;BME280;8527;49.740;6.604;2023-02-13T09:09:50;101770.16;;;2.19;100.00
16821;BME280;8527;49.740;6.604;2023-02-13T09:14:51;101768.94;;;2.49;100.00
16821;BME280;8527;49.740;6.604;2023-02-13T09:19:50;101775.16;;;2.46;100.00
16821;BME280;8527;49.740;6.604;2023-02-13T09:24:48;101779.06;;;2.77;100.00
16821;BME280;8527;49.740;6.604;2023-02-13T09:29:46;101773.94;;;2.95;100.00
16821;BME280;8527;49.740;6.604;2023-02-13T09:34:47;101773.03;;;3.15;100.00
16821;BME280;8527;49.740;6.604;2023-02-13T09:39:46;101774.19;;;3.29;100.00
16821;BME280;8527;49.740;6.604;2023-02-13T09:44:45;101775.53;;;3.37;100.00
16821;BME280;8527;49.740;6.604;2023-02-13T09:49:53;101782.06;;;3.67;100.00
16821;BME280;8527;49.740;6.604;2023-02-13T09:54:52;101780.59;;;3.79;100.00
16821;BME280;8527;49.740;6.604;2023-02-13T10:00:01;101790.28;;;3.96;100.00
16821;BME280;8527;49.740;6.604;2023-02-13T10:05:20;101784.81;;;4.36;100.00
16821;BME280;8527;49.740;6.604;2023-02-13T10:10:29;101782.84;;;4.92;100.00
16821;BME280;8527;49.740;6.604;2023-02-13T10:15:40;101796.25;;;5.21;100.00
16821;BME280;8527;49.740;6.604;2023-02-13T10:20:51;101791.75;;;5.40;100.00
16821;BME280;8527;49.740;6.604;2023-02-13T10:25:55;101784.09;;;5.67;100.00
16821;BME280;8527;49.740;6.604;2023-02-13T10:30:58;101785.97;;;5.65;100.00
16821;BME280;8527;49.740;6.604;2023-02-13T10:36:05;101785.28;;;5.94;100.00
16821;BME280;8527;49.740;6.604;2023-02-13T10:41:28;101780.69;;;5.97;100.00
16821;BME280;8527;49.740;6.604;2023-02-13T10:46:39;101780.75;;;6.42;100.00
16821;BME280;8527;49.740;6.604;2023-02-13T10:51:50;101776.72;;;6.51;99.50
16821;BME280;8527;49.740;6.604;2023-02-13T10:57:04;101774.75;;;6.55;97.71
16821;BME280;8527;49.740;6.604;2023-02-13T11:02:20;101761.88;;;6.94;95.87
16821;BME280;8527;49.740;6.604;2023-02-13T11:07:23;101757.22;;;7.26;94.21
16821;BME280;8527;49.740;6.604;2023-02-13T11:12:25;101757.06;;;7.57;92.47
16821;BME280;8527;49.740;6.604;2023-02-13T11:17:29;101756.84;;;7.87;90.67
16821;BME280;8527;49.740;6.604;2023-02-13T11:22:37;101757.44;;;8.06;88.69
16821;BME280;8527;49.740;6.604;2023-02-13T11:27:38;101752.56;;;7.99;87.73
16821;BME280;8527;49.740;6.604;2023-02-13T11:32:37;101753.66;;;8.10;88.20
16821;BME280;8527;49.740;6.604;2023-02-13T11:37:38;101743.91;;;8.64;88.41
16821;BME280;8527;49.740;6.604;2023-02-13T11:42:36;101741.00;;;8.93;85.56
16821;BME280;8527;49.740;6.604;2023-02-13T11:47:39;101730.09;;;8.84;84.75
16821;BME280;8527;49.740;6.604;2023-02-13T11:52:54;101733.97;;;9.18;85.19
16821;BME280;8527;49.740;6.604;2023-02-13T11:57:59;101723.13;;;9.58;83.43
16821;BME280;8527;49.740;6.604;2023-02-13T12:02:57;101722.06;;;9.61;84.33
16821;BME280;8527;49.740;6.604;2023-02-13T12:08:04;101720.09;;;9.51;80.04
16821;BME280;8527;49.740;6.604;2023-02-13T12:13:13;101708.44;;;9.90;79.71
16821;BME280;8527;49.740;6.604;2023-02-13T12:18:18;101705.81;;;10.01;79.63
16821;BME280;8527;49.740;6.604;2023-02-13T12:23:28;101687.38;;;10.47;79.04
16821;BME280;8527;49.740;6.604;2023-02-13T12:28:44;101683.41;;;10.52;75.90
16821;BME280;8527;49.740;6.604;2023-02-13T12:34:16;101674.19;;;10.34;77.94
16821;BME280;8527;49.740;6.604;2023-02-13T12:39:29;101670.75;;;10.56;76.23
16821;BME280;8527;49.740;6.604;2023-02-13T12:44:47;101668.19;;;10.77;76.82
16821;BME280;8527;49.740;6.604;2023-02-13T12:50:10;101658.75;;;10.84;73.92
16821;BME280;8527;49.740;6.604;2023-02-13T12:55:25;101653.66;;;11.04;72.40
16821;BME280;8527;49.740;6.604;2023-02-13T13:00:35;101649.41;;;11.13;74.39
16821;BME280;8527;49.740;6.604;2023-02-13T13:05:51;101641.97;;;11.07;71.32
16821;BME280;8527;49.740;6.604;2023-02-13T13:11:10;101630.41;;;11.29;72.71
16821;BME280;8527;49.740;6.604;2023-02-13T13:16:19;101639.72;;;11.23;70.65
16821;BME280;8527;49.740;6.604;2023-02-13T13:21:29;101631.84;;;11.33;71.05
16821;BME280;8527;49.740;6.604;2023-02-13T13:26:34;101619.22;;;11.47;70.39
16821;BME280;8527;49.740;6.604;2023-02-13T13:31:34;101613.41;;;11.53;70.02
16821;BME280;8527;49.740;6.604;2023-02-13T13:36:39;101614.06;;;11.66;70.00
16821;BME280;8527;49.740;6.604;2023-02-13T13:41:47;101611.28;;;12.10;68.13
16821;BME280;8527;49.740;6.604;2023-02-13T13:46:55;101604.16;;;12.00;68.33
16821;BME280;8527;49.740;6.604;2023-02-13T13:52:08;101600.28;;;12.25;66.50
16821;BME280;8527;49.740;6.604;2023-02-13T13:57:11;101599.25;;;12.16;64.74
16821;BME280;8527;49.740;6.604;2023-02-13T14:07:46;101596.34;;;12.70;64.51
16821;BME280;8527;49.740;6.604;2023-02-13T14:12:49;101582.22;;;12.79;65.24
16821;BME280;8527;49.740;6.604;2023-02-13T14:17:54;101578.94;;;12.56;66.28
16821;BME280;8527;49.740;6.604;2023-02-13T14:22:55;101580.53;;;12.78;66.31
16821;BME280;8527;49.740;6.604;2023-02-13T14:28:05;101572.97;;;12.74;66.51
16821;BME280;8527;49.740;6.604;2023-02-13T14:33:06;101579.66;;;12.58;67.84
16821;BME280;8527;49.740;6.604;2023-02-13T14:38:20;101576.00;;;12.18;69.93
16821;BME280;8527;49.740;6.604;2023-02-13T14:43:27;101560.66;;;11.79;72.27
16821;BME280;8527;49.740;6.604;2023-02-13T14:48:38;101573.66;;;11.51;73.64
16821;BME280;8527;49.740;6.604;2023-02-13T14:53:46;101557.75;;;11.40;74.32
16821;BME280;8527;49.740;6.604;2023-02-13T14:58:52;101559.09;;;11.13;75.45
16821;BME280;8527;49.740;6.604;2023-02-13T15:03:57;101554.56;;;10.92;76.72
16821;BME280;8527;49.740;6.604;2023-02-13T15:09:03;101556.13;;;10.62;77.77
16821;BME280;8527;49.740;6.604;2023-02-13T15:14:20;101547.47;;;10.49;78.54
16821;BME280;8527;49.740;6.604;2023-02-13T15:19:21;101548.31;;;10.15;80.15
16821;BME280;8527;49.740;6.604;2023-02-13T15:24:21;101557.69;;;10.08;80.64
16821;BME280;8527;49.740;6.604;2023-02-13T15:29:26;101558.31;;;10.00;81.22
16821;BME280;8527;49.740;6.604;2023-02-13T15:34:30;101561.53;;;9.81;82.08
16821;BME280;8527;49.740;6.604;2023-02-13T15:39:34;101554.78;;;9.77;81.56
16821;BME280;8527;49.740;6.604;2023-02-13T15:44:37;101553.69;;;9.68;82.42
16821;BME280;8527;49.740;6.604;2023-02-13T15:49:38;101553.59;;;9.81;81.48
16821;BME280;8527;49.740;6.604;2023-02-13T15:54:48;101555.03;;;9.85;81.64
16821;BME280;8527;49.740;6.604;2023-02-13T15:59:49;101552.75;;;9.69;81.38
16821;BME280;8527;49.740;6.604;2023-02-13T16:04:51;101555.16;;;9.72;82.07
16821;BME280;8527;49.740;6.604;2023-02-13T16:09:50;101549.94;;;9.59;82.21
16821;BME280;8527;49.740;6.604;2023-02-13T16:14:52;101563.66;;;9.53;82.29
16821;BME280;8527;49.740;6.604;2023-02-13T16:19:55;101570.88;;;9.51;83.25
16821;BME280;8527;49.740;6.604;2023-02-13T16:25:03;101572.09;;;9.22;83.91
16821;BME280;8527;49.740;6.604;2023-02-13T16:30:27;101581.28;;;9.05;84.78
16821;BME280;8527;49.740;6.604;2023-02-13T16:35:28;101580.78;;;9.00;85.44
16821;BME280;8527;49.740;6.604;2023-02-13T16:40:36;101572.00;;;8.75;85.84
16821;BME280;8527;49.740;6.604;2023-02-13T16:45:40;101573.16;;;8.71;85.63
16821;BME280;8527;49.740;6.604;2023-02-13T16:50:39;101574.00;;;8.71;85.80
16821;BME280;8527;49.740;6.604;2023-02-13T16:55:38;101566.84;;;8.48;86.39
16821;BME280;8527;49.740;6.604;2023-02-13T17:00:36;101579.75;;;8.39;86.59
16821;BME280;8527;49.740;6.604;2023-02-13T17:05:37;101580.44;;;8.30;86.70
16821;BME280;8527;49.740;6.604;2023-02-13T17:10:37;101574.19;;;8.18;87.27
16821;BME280;8527;49.740;6.604;2023-02-13T17:15:40;101582.66;;;8.10;86.08
16821;BME280;8527;49.740;6.604;2023-02-13T17:20:44;101583.94;;;8.05;86.30
16821;BME280;8527;49.740;6.604;2023-02-13T17:25:44;101588.44;;;7.64;88.57
16821;BME280;8527;49.740;6.604;2023-02-13T17:30:44;101597.25;;;7.37;89.73
16821;BME280;8527;49.740;6.604;2023-02-13T17:35:49;101597.53;;;7.46;88.71
16821;BME280;8527;49.740;6.604;2023-02-13T17:40:47;101586.31;;;7.43;87.57
16821;BME280;8527;49.740;6.604;2023-02-13T17:45:46;101591.03;;;7.25;88.55
16821;BME280;8527;49.740;6.604;2023-02-13T17:50:46;101595.63;;;6.94;90.67
16821;BME280;8527;49.740;6.604;2023-02-13T17:55:48;101583.09;;;6.97;90.84
16821;BME280;8527;49.740;6.604;2023-02-13T18:00:47;101588.72;;;6.78;91.76
16821;BME280;8527;49.740;6.604;2023-02-13T18:05:47;101601.53;;;6.84;91.84
16821;BME280;8527;49.740;6.604;2023-02-13T18:10:51;101607.56;;;6.72;91.59
16821;BME280;8527;49.740;6.604;2023-02-13T18:15:49;101599.88;;;6.54;91.18
16821;BME280;8527;49.740;6.604;2023-02-13T18:20:54;101594.81;;;6.37;91.19
16821;BME280;8527;49.740;6.604;2023-02-13T18:26:02;101603.75;;;6.05;93.25
16821;BME280;8527;49.740;6.604;2023-02-13T18:31:03;101599.31;;;6.05;92.92
16821;BME280;8527;49.740;6.604;2023-02-13T18:36:02;101603.75;;;6.05;93.45
16821;BME280;8527;49.740;6.604;2023-02-13T18:41:04;101599.84;;;5.82;92.94
16821;BME280;8527;49.740;6.604;2023-02-13T18:46:04;101607.63;;;5.83;93.33
16821;BME280;8527;49.740;6.604;2023-02-13T18:51:03;101611.13;;;5.84;95.03
16821;BME280;8527;49.740;6.604;2023-02-13T18:56:06;101606.88;;;5.81;92.89
16821;BME280;8527;49.740;6.604;2023-02-13T19:01:06;101623.53;;;5.51;92.79
16821;BME280;8527;49.740;6.604;2023-02-13T19:06:06;101625.81;;;5.41;93.35
16821;BME280;8527;49.740;6.604;2023-02-13T19:11:09;101626.72;;;5.26;94.07
16821;BME280;8527;49.740;6.604;2023-02-13T19:16:10;101631.47;;;5.19;94.59
16821;BME280;8527;49.740;6.604;2023-02-13T19:21:10;101636.41;;;5.09;94.44
16821;BME280;8527;49.740;6.604;2023-02-13T19:26:13;101629.44;;;4.92;97.29
16821;BME280;8527;49.740;6.604;2023-02-13T19:31:13;101630.63;;;4.86;95.84
16821;BME280;8527;49.740;6.604;2023-02-13T19:36:17;101631.41;;;4.88;96.02
16821;BME280;8527;49.740;6.604;2023-02-13T19:41:18;101631.72;;;4.66;95.85
16821;BME280;8527;49.740;6.604;2023-02-13T19:46:19;101633.66;;;4.62;97.06
16821;BME280;8527;49.740;6.604;2023-02-13T19:51:21;101638.75;;;4.65;97.05
16821;BME280;8527;49.740;6.604;2023-02-13T19:56:22;101635.59;;;4.59;95.85
16821;BME280;8527;49.740;6.604;2023-02-13T20:01:25;101645.94;;;4.46;97.37
16821;BME280;8527;49.740;6.604;2023-02-13T20:06:26;101654.66;;;4.46;96.14
16821;BME280;8527;49.740;6.604;2023-02-13T20:11:27;101657.34;;;4.29;96.03
16821;BME280;8527;49.740;6.604;2023-02-13T20:16:26;101662.22;;;4.19;96.37
16821;BME280;8527;49.740;6.604;2023-02-13T20:21:29;101658.38;;;4.08;96.02
16821;BME280;8527;49.740;6.604;2023-02-13T20:26:31;101666.53;;;4.02;95.81
16821;BME280;8527;49.740;6.604;2023-02-13T20:31:30;101664.47;;;3.91;95.87
16821;BME280;8527;49.740;6.604;2023-02-13T20:36:32;101660.84;;;3.76;96.05
16821;BME280;8527;49.740;6.604;2023-02-13T20:41:35;101659.50;;;3.85;95.78
16821;BME280;8527;49.740;6.604;2023-02-13T20:46:36;101661.91;;;3.55;96.70
16821;BME280;8527;49.740;6.604;2023-02-13T20:51:38;101651.47;;;3.53;97.91
16821;BME280;8527;49.740;6.604;2023-02-13T20:56:39;101656.66;;;3.55;97.23
16821;BME280;8527;49.740;6.604;2023-02-13T21:01:41;101650.16;;;3.44;96.52
16821;BME280;8527;49.740;6.604;2023-02-13T21:06:41;101644.28;;;3.39;96.24
16821;BME280;8527;49.740;6.604;2023-02-13T21:11:43;101645.50;;;3.32;96.71
16821;BME280;8527;49.740;6.604;2023-02-13T21:16:42;101649.69;;;3.36;97.72
16821;BME280;8527;49.740;6.604;2023-02-13T21:21:40;101645.97;;;3.40;98.36
16821;BME280;8527;49.740;6.604;2023-02-13T21:26:43;101651.25;;;3.21;96.72
16821;BME280;8527;49.740;6.604;2023-02-13T21:31:44;101640.56;;;3.06;95.93
16821;BME280;8527;49.740;6.604;2023-02-13T21:36:43;101644.84;;;2.90;96.63
16821;BME280;8527;49.740;6.604;2023-02-13T21:41:44;101644.28;;;2.83;96.77
16821;BME280;8527;49.740;6.604;2023-02-13T21:46:44;101629.84;;;2.74;97.09
16821;BME280;8527;49.740;6.604;2023-02-13T21:51:45;101638.13;;;2.84;97.48
16821;BME280;8527;49.740;6.604;2023-02-13T21:56:49;101646.59;;;2.70;97.32
16821;BME280;8527;49.740;6.604;2023-02-13T22:01:48;101635.19;;;2.71;96.82
16821;BME280;8527;49.740;6.604;2023-02-13T22:06:49;101640.78;;;2.63;96.29
16821;BME280;8527;49.740;6.604;2023-02-13T22:11:51;101633.06;;;2.41;95.69
16821;BME280;8527;49.740;6.604;2023-02-13T22:16:51;101630.72;;;2.35;99.26
16821;BME280;8527;49.740;6.604;2023-02-13T22:21:49;101633.09;;;2.39;98.22
16821;BME280;8527;49.740;6.604;2023-02-13T22:26:52;101634.75;;;2.42;98.34
16821;BME280;8527;49.740;6.604;2023-02-13T22:31:50;101642.16;;;2.32;97.22
16821;BME280;8527;49.740;6.604;2023-02-13T22:36:49;101643.63;;;2.19;95.51
16821;BME280;8527;49.740;6.604;2023-02-13T22:41:47;101643.09;;;2.10;97.25
16821;BME280;8527;49.740;6.604;2023-02-13T22:46:48;101645.56;;;2.14;97.25
16821;BME280;8527;49.740;6.604;2023-02-13T22:51:46;101641.53;;;2.06;96.85
16821;BME280;8527;49.740;6.604;2023-02-13T22:56:45;101637.34;;;1.81;97.55
16821;BME280;8527;49.740;6.604;2023-02-13T23:01:43;101642.78;;;1.98;97.93
16821;BME280;8527;49.740;6.604;2023-02-13T23:06:45;101636.25;;;1.87;96.79
16821;BME280;8527;49.740;6.604;2023-02-13T23:11:43;101634.19;;;1.73;97.53
16821;BME280;8527;49.740;6.604;2023-02-13T23:16:56;101646.69;;;1.66;98.92
16821;BME280;8527;49.740;6.604;2023-02-13T23:22:10;101642.22;;;1.68;98.26
16821;BME280;8527;49.740;6.604;2023-02-13T23:27:10;101642.38;;;1.65;97.79
16821;BME280;8527;49.740;6.604;2023-02-13T23:32:10;101640.31;;;1.51;96.52
16821;BME280;8527;49.740;6.604;2023-02-13T23:37:13;101637.94;;;1.45;97.00
16821;BME280;8527;49.740;6.604;2023-02-13T23:42:17;101634.09;;;1.33;96.76
16821;BME280;8527;49.740;6.604;2023-02-13T23:47:18;101639.41;;;1.30;96.62
16821;BME280;8527;49.740;6.604;2023-02-13T23:52:19;101636.28;;;1.22;96.39
16821;BME280;8527;49.740;6.604;2023-02-13T23:57:18;101629.09;;;1.27;97.42
